sensor_id;sensor_type;location;lat;lon;timestamp;P1;durP1;ratioP1;P2;durP2;ratioP2
19173;SDS011;9719;49.322;8.536;2023-08-17T00:00:17;0.50;;;0.50;;
19173;SDS011;9719;49.322;8.536;2023-08-17T00:05:19;0.20;;;0.20;;
19173;SDS011;9719;49.322;8.536;2023-08-17T00:10:22;0.30;;;0.30;;
19173;SDS011;9719;49.322;8.536;2023-08-17T00:15:24;1.08;;;0.52;;
19173;SDS011;9719;49.322;8.536;2023-08-17T00:20:26;0.85;;;0.52;;
19173;SDS011;9719;49.322;8.536;2023-08-17T00:25:29;1.38;;;0.57;;
19173;SDS011;9719;49.322;8.536;2023-08-17T00:30:31;0.40;;;0.40;;
19173;SDS011;9719;49.322;8.536;2023-08-17T00:35:36;0.50;;;0.40;;
19173;SDS011;9719;49.322;8.536;2023-08-17T00:40:39;0.40;;;0.40;;
19173;SDS011;9719;49.322;8.536;2023-08-17T00:45:40;0.35;;;0.30;;
19173;SDS011;9719;49.322;8.536;2023-08-17T00:50:43;1.65;;;0.40;;
19173;SDS011;9719;49.322;8.536;2023-08-17T00:55:49;1.65;;;1.00;;
19173;SDS011;9719;49.322;8.536;2023-08-17T01:00:53;0.98;;;0.55;;
19173;SDS011;9719;49.322;8.536;2023-08-17T01:05:55;0.40;;;0.40;;
19173;SDS011;9719;49.322;8.536;2023-08-17T01:10:59;0.57;;;0.30;;
19173;SDS011;9719;49.322;8.536;2023-08-17T01:16:06;0.47;;;0.47;;
19173;SDS011;9719;49.322;8.536;2023-08-17T01:21:16;0.95;;;0.60;;
19173;SDS011;9719;49.322;8.536;2023-08-17T01:26:20;0.40;;;0.40;;
19173;SDS011;9719;49.322;8.536;2023-08-17T01:31:23;0.55;;;0.50;;
19173;SDS011;9719;49.322;8.536;2023-08-17T01:36:32;0.52;;;0.30;;
19173;SDS011;9719;49.322;8.536;2023-08-17T01:41:39;0.30;;;0.30;;
19173;SDS011;9719;49.322;8.536;2023-08-17T01:46:43;0.40;;;0.40;;
19173;SDS011;9719;49.322;8.536;2023-08-17T01:51:44;0.38;;;0.38;;
19173;SDS011;9719;49.322;8.536;2023-08-17T01:56:47;0.47;;;0.47;;
19173;SDS011;9719;49.322;8.536;2023-08-17T02:01:49;0.32;;;0.32;;
19173;SDS011;9719;49.322;8.536;2023-08-17T02:06:51;0.75;;;0.75;;
19173;SDS011;9719;49.322;8.536;2023-08-17T02:11:54;1.30;;;0.60;;
19173;SDS011;9719;49.322;8.536;2023-08-17T02:16:55;0.43;;;0.43;;
19173;SDS011;9719;49.322;8.536;2023-08-17T02:21:57;0.43;;;0.43;;
19173;SDS011;9719;49.322;8.536;2023-08-17T02:27:00;0.95;;;0.70;;
19173;SDS011;9719;49.322;8.536;2023-08-17T02:32:02;0.55;;;0.55;;
19173;SDS011;9719;49.322;8.536;2023-08-17T02:37:04;1.05;;;0.65;;
19173;SDS011;9719;49.322;8.536;2023-08-17T02:42:07;0.90;;;0.50;;
19173;SDS011;9719;49.322;8.536;2023-08-17T02:47:09;0.50;;;0.50;;
19173;SDS011;9719;49.322;8.536;2023-08-17T02:52:11;0.50;;;0.50;;
19173;SDS011;9719;49.322;8.536;2023-08-17T02:57:14;0.77;;;0.38;;
19173;SDS011;9719;49.322;8.536;2023-08-17T03:02:15;0.70;;;0.70;;
19173;SDS011;9719;49.322;8.536;2023-08-17T03:07:17;0.95;;;0.50;;
19173;SDS011;9719;49.322;8.536;2023-08-17T03:12:20;0.47;;;0.30;;
19173;SDS011;9719;49.322;8.536;2023-08-17T03:17:22;0.68;;;0.65;;
19173;SDS011;9719;49.322;8.536;2023-08-17T03:22:23;0.57;;;0.52;;
19173;SDS011;9719;49.322;8.536;2023-08-17T03:27:26;0.70;;;0.70;;
19173;SDS011;9719;49.322;8.536;2023-08-17T03:32:28;1.27;;;0.77;;
19173;SDS011;9719;49.322;8.536;2023-08-17T03:37:30;0.38;;;0.30;;
19173;SDS011;9719;49.322;8.536;2023-08-17T03:42:33;0.95;;;0.47;;
19173;SDS011;9719;49.322;8.536;2023-08-17T03:47:35;1.42;;;0.50;;
19173;SDS011;9719;49.322;8.536;2023-08-17T03:52:36;0.88;;;0.50;;
19173;SDS011;9719;49.322;8.536;2023-08-17T03:57:39;0.60;;;0.50;;
19173;SDS011;9719;49.322;8.536;2023-08-17T04:02:41;0.85;;;0.60;;
19173;SDS011;9719;49.322;8.536;2023-08-17T04:07:43;0.93;;;0.50;;
19173;SDS011;9719;49.322;8.536;2023-08-17T04:12:46;3.63;;;0.50;;
19173;SDS011;9719;49.322;8.536;2023-08-17T04:17:48;0.60;;;0.60;;
19173;SDS011;9719;49.322;8.536;2023-08-17T04:22:49;0.80;;;0.80;;
19173;SDS011;9719;49.322;8.536;2023-08-17T04:27:53;0.30;;;0.30;;
19173;SDS011;9719;49.322;8.536;2023-08-17T04:32:55;0.90;;;0.80;;
19173;SDS011;9719;49.322;8.536;2023-08-17T04:37:56;1.30;;;0.70;;
19173;SDS011;9719;49.322;8.536;2023-08-17T04:43:00;0.88;;;0.80;;
19173;SDS011;9719;49.322;8.536;2023-08-17T04:48:02;0.68;;;0.60;;
19173;SDS011;9719;49.322;8.536;2023-08-17T04:53:06;1.27;;;0.80;;
19173;SDS011;9719;49.322;8.536;2023-08-17T04:58:10;1.15;;;0.88;;
19173;SDS011;9719;49.322;8.536;2023-08-17T05:03:11;0.90;;;0.70;;
19173;SDS011;9719;49.322;8.536;2023-08-17T05:08:13;1.55;;;0.82;;
19173;SDS011;9719;49.322;8.536;2023-08-17T05:13:16;0.70;;;0.70;;
19173;SDS011;9719;49.322;8.536;2023-08-17T05:18:18;1.20;;;0.80;;
19173;SDS011;9719;49.322;8.536;2023-08-17T05:23:20;0.60;;;0.60;;
19173;SDS011;9719;49.322;8.536;2023-08-17T05:28:23;0.73;;;0.73;;
19173;SDS011;9719;49.322;8.536;2023-08-17T05:33:25;0.80;;;0.65;;
19173;SDS011;9719;49.322;8.536;2023-08-17T05:38:27;0.98;;;0.70;;
19173;SDS011;9719;49.322;8.536;2023-08-17T05:43:30;0.50;;;0.50;;
19173;SDS011;9719;49.322;8.536;2023-08-17T05:48:32;1.05;;;0.90;;
19173;SDS011;9719;49.322;8.536;2023-08-17T05:53:34;0.70;;;0.70;;
19173;SDS011;9719;49.322;8.536;2023-08-17T05:58:37;1.38;;;1.25;;
19173;SDS011;9719;49.322;8.536;2023-08-17T06:03:39;2.50;;;0.90;;
19173;SDS011;9719;49.322;8.536;2023-08-17T06:08:41;1.05;;;1.05;;
19173;SDS011;9719;49.322;8.536;2023-08-17T06:13:44;1.23;;;1.13;;
19173;SDS011;9719;49.322;8.536;2023-08-17T06:18:46;2.50;;;2.05;;
19173;SDS011;9719;49.322;8.536;2023-08-17T06:23:47;2.13;;;1.92;;
19173;SDS011;9719;49.322;8.536;2023-08-17T06:28:51;3.50;;;3.08;;
19173;SDS011;9719;49.322;8.536;2023-08-17T06:33:53;6.20;;;3.00;;
19173;SDS011;9719;49.322;8.536;2023-08-17T06:38:55;3.53;;;2.88;;
19173;SDS011;9719;49.322;8.536;2023-08-17T06:43:58;3.05;;;2.78;;
19173;SDS011;9719;49.322;8.536;2023-08-17T06:49:00;5.00;;;2.72;;
19173;SDS011;9719;49.322;8.536;2023-08-17T06:54:03;3.33;;;2.50;;
19173;SDS011;9719;49.322;8.536;2023-08-17T06:59:10;2.80;;;2.60;;
19173;SDS011;9719;49.322;8.536;2023-08-17T07:04:12;3.17;;;2.47;;
19173;SDS011;9719;49.322;8.536;2023-08-17T07:09:14;4.75;;;2.90;;
19173;SDS011;9719;49.322;8.536;2023-08-17T07:14:17;5.47;;;3.38;;
19173;SDS011;9719;49.322;8.536;2023-08-17T07:19:19;3.38;;;2.88;;
19173;SDS011;9719;49.322;8.536;2023-08-17T07:24:21;4.53;;;3.05;;
19173;SDS011;9719;49.322;8.536;2023-08-17T07:29:24;5.22;;;3.65;;
19173;SDS011;9719;49.322;8.536;2023-08-17T07:34:27;9.05;;;5.10;;
19173;SDS011;9719;49.322;8.536;2023-08-17T07:39:30;5.20;;;4.25;;
19173;SDS011;9719;49.322;8.536;2023-08-17T07:44:35;5.03;;;4.53;;
19173;SDS011;9719;49.322;8.536;2023-08-17T07:49:39;4.13;;;3.83;;
19173;SDS011;9719;49.322;8.536;2023-08-17T07:54:41;4.10;;;3.65;;
19173;SDS011;9719;49.322;8.536;2023-08-17T07:59:44;5.15;;;2.80;;
19173;SDS011;9719;49.322;8.536;2023-08-17T08:04:46;2.25;;;2.05;;
19173;SDS011;9719;49.322;8.536;2023-08-17T08:09:48;2.53;;;2.33;;
19173;SDS011;9719;49.322;8.536;2023-08-17T08:14:51;3.03;;;2.28;;
19173;SDS011;9719;49.322;8.536;2023-08-17T08:19:53;1.83;;;1.73;;
19173;SDS011;9719;49.322;8.536;2023-08-17T08:24:55;2.28;;;2.08;;
19173;SDS011;9719;49.322;8.536;2023-08-17T08:30:00;2.83;;;2.00;;
19173;SDS011;9719;49.322;8.536;2023-08-17T08:35:01;3.55;;;2.47;;
19173;SDS011;9719;49.322;8.536;2023-08-17T08:40:04;3.78;;;1.65;;
19173;SDS011;9719;49.322;8.536;2023-08-17T08:45:14;5.50;;;2.08;;
19173;SDS011;9719;49.322;8.536;2023-08-17T08:50:16;1.77;;;1.55;;
19173;SDS011;9719;49.322;8.536;2023-08-17T08:55:23;2.63;;;2.05;;
19173;SDS011;9719;49.322;8.536;2023-08-17T09:00:29;1.70;;;1.60;;
19173;SDS011;9719;49.322;8.536;2023-08-17T09:05:31;2.08;;;1.95;;
19173;SDS011;9719;49.322;8.536;2023-08-17T09:10:35;8.88;;;5.68;;
19173;SDS011;9719;49.322;8.536;2023-08-17T09:15:38;7.75;;;6.10;;
19173;SDS011;9719;49.322;8.536;2023-08-17T09:20:41;10.70;;;6.50;;
19173;SDS011;9719;49.322;8.536;2023-08-17T09:25:45;7.75;;;6.97;;
19173;SDS011;9719;49.322;8.536;2023-08-17T09:30:56;7.30;;;5.88;;
19173;SDS011;9719;49.322;8.536;2023-08-17T09:36:00;7.68;;;4.80;;
19173;SDS011;9719;49.322;8.536;2023-08-17T09:41:02;4.63;;;4.20;;
19173;SDS011;9719;49.322;8.536;2023-08-17T09:46:06;5.25;;;4.82;;
19173;SDS011;9719;49.322;8.536;2023-08-17T09:51:10;4.00;;;3.70;;
19173;SDS011;9719;49.322;8.536;2023-08-17T09:56:16;6.40;;;3.95;;
19173;SDS011;9719;49.322;8.536;2023-08-17T10:01:21;6.95;;;4.03;;
19173;SDS011;9719;49.322;8.536;2023-08-17T10:06:25;4.28;;;3.92;;
19173;SDS011;9719;49.322;8.536;2023-08-17T10:11:31;6.07;;;4.38;;
19173;SDS011;9719;49.322;8.536;2023-08-17T10:16:44;5.32;;;4.03;;
19173;SDS011;9719;49.322;8.536;2023-08-17T10:21:56;4.13;;;3.28;;
19173;SDS011;9719;49.322;8.536;2023-08-17T10:27:10;5.75;;;3.65;;
19173;SDS011;9719;49.322;8.536;2023-08-17T10:50:31;5.43;;;3.75;;
19173;SDS011;9719;49.322;8.536;2023-08-17T10:55:36;3.97;;;2.78;;
19173;SDS011;9719;49.322;8.536;2023-08-17T11:00:54;5.53;;;3.17;;
19173;SDS011;9719;49.322;8.536;2023-08-17T11:11:19;6.13;;;3.10;;
19173;SDS011;9719;49.322;8.536;2023-08-17T11:16:25;3.83;;;2.70;;
19173;SDS011;9719;49.322;8.536;2023-08-17T11:38:54;3.88;;;3.47;;
19173;SDS011;9719;49.322;8.536;2023-08-17T11:43:55;2.67;;;2.45;;
19173;SDS011;9719;49.322;8.536;2023-08-17T11:48:58;3.28;;;2.80;;
19173;SDS011;9719;49.322;8.536;2023-08-17T11:54:02;2.30;;;2.10;;
19173;SDS011;9719;49.322;8.536;2023-08-17T11:59:10;2.92;;;2.50;;
19173;SDS011;9719;49.322;8.536;2023-08-17T12:04:20;3.10;;;2.35;;
19173;SDS011;9719;49.322;8.536;2023-08-17T12:09:24;2.50;;;2.30;;
19173;SDS011;9719;49.322;8.536;2023-08-17T12:14:26;5.22;;;2.22;;
19173;SDS011;9719;49.322;8.536;2023-08-17T12:19:29;2.40;;;2.20;;
19173;SDS011;9719;49.322;8.536;2023-08-17T12:24:32;3.65;;;2.75;;
19173;SDS011;9719;49.322;8.536;2023-08-17T12:29:45;2.97;;;1.80;;
19173;SDS011;9719;49.322;8.536;2023-08-17T12:34:47;2.38;;;2.17;;
19173;SDS011;9719;49.322;8.536;2023-08-17T12:39:50;2.60;;;1.80;;
19173;SDS011;9719;49.322;8.536;2023-08-17T12:44:52;2.33;;;2.13;;
19173;SDS011;9719;49.322;8.536;2023-08-17T12:49:53;1.95;;;1.85;;
19173;SDS011;9719;49.322;8.536;2023-08-17T12:54:56;1.55;;;1.42;;
19173;SDS011;9719;49.322;8.536;2023-08-17T12:59:58;2.83;;;1.60;;
19173;SDS011;9719;49.322;8.536;2023-08-17T13:05:00;5.75;;;1.85;;
19173;SDS011;9719;49.322;8.536;2023-08-17T13:10:03;1.30;;;1.20;;
19173;SDS011;9719;49.322;8.536;2023-08-17T13:15:06;1.90;;;1.75;;
19173;SDS011;9719;49.322;8.536;2023-08-17T13:20:08;2.05;;;1.80;;
19173;SDS011;9719;49.322;8.536;2023-08-17T13:25:12;1.95;;;1.67;;
19173;SDS011;9719;49.322;8.536;2023-08-17T13:30:14;3.75;;;2.00;;
19173;SDS011;9719;49.322;8.536;2023-08-17T13:35:16;2.20;;;2.00;;
19173;SDS011;9719;49.322;8.536;2023-08-17T13:40:19;2.90;;;2.53;;
19173;SDS011;9719;49.322;8.536;2023-08-17T13:45:21;1.65;;;1.55;;
19173;SDS011;9719;49.322;8.536;2023-08-17T13:50:22;3.08;;;2.22;;
19173;SDS011;9719;49.322;8.536;2023-08-17T13:55:25;2.95;;;2.22;;
19173;SDS011;9719;49.322;8.536;2023-08-17T14:00:28;2.50;;;2.30;;
19173;SDS011;9719;49.322;8.536;2023-08-17T14:05:30;2.38;;;2.13;;
19173;SDS011;9719;49.322;8.536;2023-08-17T14:10:33;2.88;;;1.73;;
19173;SDS011;9719;49.322;8.536;2023-08-17T14:15:36;2.53;;;1.65;;
19173;SDS011;9719;49.322;8.536;2023-08-17T14:20:37;3.72;;;1.83;;
19173;SDS011;9719;49.322;8.536;2023-08-17T14:25:40;2.15;;;1.65;;
19173;SDS011;9719;49.322;8.536;2023-08-17T14:30:42;1.48;;;1.42;;
19173;SDS011;9719;49.322;8.536;2023-08-17T14:35:44;4.80;;;1.65;;
19173;SDS011;9719;49.322;8.536;2023-08-17T14:40:47;1.60;;;1.50;;
19173;SDS011;9719;49.322;8.536;2023-08-17T14:45:49;1.45;;;1.35;;
19173;SDS011;9719;49.322;8.536;2023-08-17T14:50:51;1.65;;;1.55;;
19173;SDS011;9719;49.322;8.536;2023-08-17T14:55:54;2.40;;;1.85;;
19173;SDS011;9719;49.322;8.536;2023-08-17T15:00:56;1.95;;;1.63;;
19173;SDS011;9719;49.322;8.536;2023-08-17T15:05:57;1.67;;;1.58;;
19173;SDS011;9719;49.322;8.536;2023-08-17T15:11:00;2.33;;;1.55;;
19173;SDS011;9719;49.322;8.536;2023-08-17T15:16:03;1.75;;;1.33;;
19173;SDS011;9719;49.322;8.536;2023-08-17T15:21:05;1.33;;;1.33;;
19173;SDS011;9719;49.322;8.536;2023-08-17T15:26:08;1.60;;;1.20;;
19173;SDS011;9719;49.322;8.536;2023-08-17T15:31:10;2.15;;;1.25;;
19173;SDS011;9719;49.322;8.536;2023-08-17T15:36:13;1.13;;;1.02;;
19173;SDS011;9719;49.322;8.536;2023-08-17T15:41:19;1.42;;;1.33;;
19173;SDS011;9719;49.322;8.536;2023-08-17T15:46:21;1.50;;;1.40;;
19173;SDS011;9719;49.322;8.536;2023-08-17T15:51:23;1.38;;;1.33;;
19173;SDS011;9719;49.322;8.536;2023-08-17T15:56:28;1.10;;;1.00;;
19173;SDS011;9719;49.322;8.536;2023-08-17T16:01:30;1.45;;;1.27;;
19173;SDS011;9719;49.322;8.536;2023-08-17T16:06:32;2.45;;;1.42;;
19173;SDS011;9719;49.322;8.536;2023-08-17T16:11:35;1.30;;;1.20;;
19173;SDS011;9719;49.322;8.536;2023-08-17T16:16:37;1.60;;;1.50;;
19173;SDS011;9719;49.322;8.536;2023-08-17T16:21:38;1.77;;;1.65;;
19173;SDS011;9719;49.322;8.536;2023-08-17T16:26:41;1.45;;;1.30;;
19173;SDS011;9719;49.322;8.536;2023-08-17T16:31:43;2.70;;;2.25;;
19173;SDS011;9719;49.322;8.536;2023-08-17T16:36:45;1.55;;;1.38;;
19173;SDS011;9719;49.322;8.536;2023-08-17T16:41:48;2.50;;;1.42;;
19173;SDS011;9719;49.322;8.536;2023-08-17T16:46:50;1.63;;;1.35;;
19173;SDS011;9719;49.322;8.536;2023-08-17T16:51:51;1.10;;;1.10;;
19173;SDS011;9719;49.322;8.536;2023-08-17T16:56:54;3.22;;;0.98;;
19173;SDS011;9719;49.322;8.536;2023-08-17T17:01:56;2.03;;;1.42;;
19173;SDS011;9719;49.322;8.536;2023-08-17T17:06:58;1.40;;;1.33;;
19173;SDS011;9719;49.322;8.536;2023-08-17T17:12:01;2.42;;;1.73;;
19173;SDS011;9719;49.322;8.536;2023-08-17T17:17:04;1.60;;;1.50;;
19173;SDS011;9719;49.322;8.536;2023-08-17T17:22:06;3.20;;;1.80;;
19173;SDS011;9719;49.322;8.536;2023-08-17T17:27:10;2.50;;;1.90;;
19173;SDS011;9719;49.322;8.536;2023-08-17T17:32:11;1.50;;;1.40;;
19173;SDS011;9719;49.322;8.536;2023-08-17T17:37:13;1.73;;;1.63;;
19173;SDS011;9719;49.322;8.536;2023-08-17T17:42:16;1.52;;;1.33;;
19173;SDS011;9719;49.322;8.536;2023-08-17T17:47:18;1.70;;;1.60;;
19173;SDS011;9719;49.322;8.536;2023-08-17T17:52:19;1.35;;;1.10;;
19173;SDS011;9719;49.322;8.536;2023-08-17T17:57:23;4.70;;;2.13;;
19173;SDS011;9719;49.322;8.536;2023-08-17T18:02:25;1.67;;;1.30;;
19173;SDS011;9719;49.322;8.536;2023-08-17T18:07:27;2.45;;;1.60;;
19173;SDS011;9719;49.322;8.536;2023-08-17T18:12:30;1.60;;;1.50;;
19173;SDS011;9719;49.322;8.536;2023-08-17T18:17:32;1.98;;;1.17;;
19173;SDS011;9719;49.322;8.536;2023-08-17T18:22:34;2.63;;;2.03;;
19173;SDS011;9719;49.322;8.536;2023-08-17T18:27:37;2.80;;;1.88;;
19173;SDS011;9719;49.322;8.536;2023-08-17T18:32:40;1.65;;;1.30;;
19173;SDS011;9719;49.322;8.536;2023-08-17T18:37:42;1.85;;;1.75;;
19173;SDS011;9719;49.322;8.536;2023-08-17T18:42:47;1.63;;;1.52;;
19173;SDS011;9719;49.322;8.536;2023-08-17T18:47:50;2.03;;;1.33;;
19173;SDS011;9719;49.322;8.536;2023-08-17T18:52:52;2.22;;;2.08;;
19173;SDS011;9719;49.322;8.536;2023-08-17T18:57:55;1.58;;;1.48;;
19173;SDS011;9719;49.322;8.536;2023-08-17T19:02:56;4.00;;;1.48;;
19173;SDS011;9719;49.322;8.536;2023-08-17T19:07:58;1.25;;;1.20;;
19173;SDS011;9719;49.322;8.536;2023-08-17T19:13:01;1.92;;;1.77;;
19173;SDS011;9719;49.322;8.536;2023-08-17T19:18:03;2.20;;;2.00;;
19173;SDS011;9719;49.322;8.536;2023-08-17T19:23:05;1.63;;;1.52;;
19173;SDS011;9719;49.322;8.536;2023-08-17T19:28:08;1.67;;;1.58;;
19173;SDS011;9719;49.322;8.536;2023-08-17T19:33:09;1.52;;;1.42;;
19173;SDS011;9719;49.322;8.536;2023-08-17T19:38:11;2.38;;;2.00;;
19173;SDS011;9719;49.322;8.536;2023-08-17T19:43:14;2.00;;;1.90;;
19173;SDS011;9719;49.322;8.536;2023-08-17T19:48:16;1.58;;;1.48;;
19173;SDS011;9719;49.322;8.536;2023-08-17T19:53:17;3.45;;;1.90;;
19173;SDS011;9719;49.322;8.536;2023-08-17T19:58:20;3.05;;;1.70;;
19173;SDS011;9719;49.322;8.536;2023-08-17T20:03:22;2.33;;;1.90;;
19173;SDS011;9719;49.322;8.536;2023-08-17T20:08:24;2.35;;;1.85;;
19173;SDS011;9719;49.322;8.536;2023-08-17T20:13:27;2.03;;;1.88;;
19173;SDS011;9719;49.322;8.536;2023-08-17T20:18:28;3.13;;;1.38;;
19173;SDS011;9719;49.322;8.536;2023-08-17T20:23:30;1.63;;;1.52;;
19173;SDS011;9719;49.322;8.536;2023-08-17T20:28:33;2.53;;;1.58;;
19173;SDS011;9719;49.322;8.536;2023-08-17T20:33:35;2.05;;;1.83;;
19173;SDS011;9719;49.322;8.536;2023-08-17T20:38:37;1.77;;;1.55;;
19173;SDS011;9719;49.322;8.536;2023-08-17T20:43:40;2.15;;;2.05;;
19173;SDS011;9719;49.322;8.536;2023-08-17T20:48:41;3.00;;;2.78;;
19173;SDS011;9719;49.322;8.536;2023-08-17T20:53:43;2.15;;;2.03;;
19173;SDS011;9719;49.322;8.536;2023-08-17T20:58:46;2.13;;;1.92;;
19173;SDS011;9719;49.322;8.536;2023-08-17T21:03:48;1.88;;;1.77;;
19173;SDS011;9719;49.322;8.536;2023-08-17T21:08:50;1.88;;;1.77;;
19173;SDS011;9719;49.322;8.536;2023-08-17T21:13:53;1.55;;;1.45;;
19173;SDS011;9719;49.322;8.536;2023-08-17T21:18:54;1.73;;;1.63;;
19173;SDS011;9719;49.322;8.536;2023-08-17T21:23:59;2.15;;;1.77;;
19173;SDS011;9719;49.322;8.536;2023-08-17T21:29:02;2.38;;;2.17;;
19173;SDS011;9719;49.322;8.536;2023-08-17T21:34:04;1.83;;;1.73;;
19173;SDS011;9719;49.322;8.536;2023-08-17T21:39:06;2.28;;;2.17;;
19173;SDS011;9719;49.322;8.536;2023-08-17T21:44:09;2.00;;;1.90;;
19173;SDS011;9719;49.322;8.536;2023-08-17T21:49:10;3.05;;;2.60;;
19173;SDS011;9719;49.322;8.536;2023-08-17T21:54:12;2.28;;;2.08;;
19173;SDS011;9719;49.322;8.536;2023-08-17T21:59:15;2.28;;;2.08;;
19173;SDS011;9719;49.322;8.536;2023-08-17T22:04:17;2.45;;;2.22;;
19173;SDS011;9719;49.322;8.536;2023-08-17T22:09:18;1.98;;;1.80;;
19173;SDS011;9719;49.322;8.536;2023-08-17T22:14:21;2.58;;;2.38;;
19173;SDS011;9719;49.322;8.536;2023-08-17T22:19:23;2.95;;;2.70;;
19173;SDS011;9719;49.322;8.536;2023-08-17T22:24:25;3.28;;;2.40;;
19173;SDS011;9719;49.322;8.536;2023-08-17T22:29:28;2.38;;;2.03;;
19173;SDS011;9719;49.322;8.536;2023-08-17T22:34:30;2.92;;;1.92;;
19173;SDS011;9719;49.322;8.536;2023-08-17T22:39:32;2.72;;;2.47;;
19173;SDS011;9719;49.322;8.536;2023-08-17T22:44:34;3.30;;;2.67;;
19173;SDS011;9719;49.322;8.536;2023-08-17T22:49:36;1.90;;;1.80;;
19173;SDS011;9719;49.322;8.536;2023-08-17T22:54:38;2.13;;;1.92;;
19173;SDS011;9719;49.322;8.536;2023-08-17T22:59:41;2.22;;;2.05;;
19173;SDS011;9719;49.322;8.536;2023-08-17T23:04:43;2.33;;;2.13;;
19173;SDS011;9719;49.322;8.536;2023-08-17T23:09:44;2.40;;;2.00;;
19173;SDS011;9719;49.322;8.536;2023-08-17T23:14:48;1.67;;;1.58;;
19173;SDS011;9719;49.322;8.536;2023-08-17T23:19:50;2.22;;;2.03;;
19173;SDS011;9719;49.322;8.536;2023-08-17T23:24:51;2.78;;;2.58;;
19173;SDS011;9719;49.322;8.536;2023-08-17T23:29:54;1.70;;;1.60;;
19173;SDS011;9719;49.322;8.536;2023-08-17T23:34:56;2.10;;;2.00;;
19173;SDS011;9719;49.322;8.536;2023-08-17T23:39:58;6.82;;;3.03;;
19173;SDS011;9719;49.322;8.536;2023-08-17T23:45:01;2.35;;;2.15;;
19173;SDS011;9719;49.322;8.536;2023-08-17T23:50:03;3.00;;;2.00;;
19173;SDS011;9719;49.322;8.536;2023-08-17T23:55:05;2.70;;;2.42;;
